Time;durP1;ratioP1;P1;durP2;ratioP2;P2;SDS_P1;SDS_P2;PMS_P1;PMS_P2;Temp;Humidity;BMP_temperature;BMP_pressure;BME280_temperature;BME280_humidity;BME280_pressure;Samples;Min_cycle;Max_cycle;Signal;HPM_P1;HPM_P2
2023/12/30 00:02:20;;;;;;;15.88;7.60;;;1.10;99.90;;;;;;4991792;28;20039;-61
2023/12/30 00:04:47;;;;;;;15.95;8.25;;;1.10;99.90;;;;;;4992820;28;20046;-60
2023/12/30 00:07:14;;;;;;;16.65;7.82;;;1.10;99.90;;;;;;4990755;28;20309;-59
2023/12/30 00:09:41;;;;;;;15.52;6.75;;;1.00;99.90;;;;;;4992070;28;20505;-60
2023/12/30 00:12:09;;;;;;;17.27;7.47;;;1.00;99.90;;;;;;4989327;28;20491;-60
2023/12/30 00:14:35;;;;;;;16.20;7.93;;;1.00;99.90;;;;;;4991329;28;20069;-59
2023/12/30 00:17:02;;;;;;;12.32;6.40;;;1.10;99.90;;;;;;4991676;28;20125;-59
2023/12/30 00:19:29;;;;;;;13.38;5.70;;;1.10;99.90;;;;;;4992429;28;20049;-60
2023/12/30 00:21:56;;;;;;;14.38;5.75;;;1.10;99.90;;;;;;4991093;28;20121;-60
2023/12/30 00:24:23;;;;;;;14.32;6.63;;;1.10;99.90;;;;;;4992145;28;20487;-60
2023/12/30 00:26:50;;;;;;;14.80;5.70;;;1.10;99.90;;;;;;4988738;28;20040;-59
2023/12/30 00:29:17;;;;;;;;;;;1.20;99.90;;;;;;4985358;28;20117;-58
2023/12/30 00:31:44;;;;;;;10.38;5.65;;;1.20;99.90;;;;;;4990729;28;19968;-58
2023/12/30 00:34:11;;;;;;;12.48;6.13;;;1.10;99.90;;;;;;4973674;28;20057;-58
2023/12/30 00:36:43;;;;;;;12.07;6.03;;;1.10;99.90;;;;;;4982918;28;20046;-60
2023/12/30 00:39:10;;;;;;;13.98;6.07;;;1.00;99.90;;;;;;4974444;28;20046;-60
2023/12/30 00:41:37;;;;;;;;;;;1.00;99.90;;;;;;4990468;28;20072;-60
2023/12/30 00:44:04;;;;;;;16.30;6.60;;;1.10;99.90;;;;;;4991038;28;19922;-60
2023/12/30 00:46:31;;;;;;;15.40;6.40;;;1.20;99.90;;;;;;4973576;28;20073;-58
2023/12/30 00:48:58;;;;;;;14.68;7.00;;;1.20;99.90;;;;;;4989976;28;20558;-59
2023/12/30 00:51:25;;;;;;;16.92;6.90;;;1.10;99.90;;;;;;4982594;28;20068;-60
2023/12/30 00:53:52;;;;;;;16.02;7.38;;;1.00;99.90;;;;;;4987774;28;20053;-59
2023/12/30 00:56:19;;;;;;;14.80;6.85;;;0.90;99.90;;;;;;4990881;28;20145;-60
2023/12/30 00:58:46;;;;;;;15.27;7.38;;;1.00;99.90;;;;;;4982567;28;20410;-60
2023/12/30 01:01:13;;;;;;;10.55;4.72;;;1.00;99.90;;;;;;4990404;28;20456;-59
2023/12/30 01:03:40;;;;;;;13.18;6.40;;;1.10;99.90;;;;;;4991742;28;20500;-59
2023/12/30 01:06:08;;;;;;;14.18;5.75;;;1.10;99.90;;;;;;4991969;28;20380;-59
2023/12/30 01:08:34;;;;;;;13.68;6.10;;;1.10;99.90;;;;;;4989795;28;20050;-59
2023/12/30 01:11:02;;;;;;;10.60;5.82;;;1.20;99.90;;;;;;4992191;28;20471;-60
2023/12/30 01:13:29;;;;;;;15.75;5.80;;;1.30;99.90;;;;;;4972142;28;20518;-58
2023/12/30 01:15:57;;;;;;;15.70;5.97;;;1.30;99.90;;;;;;4986060;28;20105;-60
2023/12/30 01:18:24;;;;;;;14.48;6.57;;;1.30;99.90;;;;;;4990635;28;20850;-61
2023/12/30 01:20:52;;;;;;;11.93;5.43;;;1.30;99.90;;;;;;4986074;28;20042;-59
2023/12/30 01:23:19;;;;;;;10.85;4.38;;;1.30;99.90;;;;;;4984729;28;20109;-60
2023/12/30 01:25:46;;;;;;;8.93;3.90;;;1.30;99.90;;;;;;4991377;28;20042;-60
2023/12/30 01:28:12;;;;;;;8.85;4.00;;;1.30;99.90;;;;;;4989941;28;20578;-60
2023/12/30 01:30:40;;;;;;;6.45;3.95;;;1.30;99.90;;;;;;4974287;28;20046;-60
2023/12/30 01:33:07;;;;;;;9.43;4.53;;;1.30;99.90;;;;;;4988402;28;20125;-59
2023/12/30 01:35:35;;;;;;;14.63;4.60;;;1.30;99.90;;;;;;4991552;28;20053;-60
2023/12/30 01:38:02;;;;;;;7.03;4.28;;;1.30;99.90;;;;;;4983022;28;20137;-58
2023/12/30 01:40:32;;;;;;;12.90;6.13;;;1.30;99.90;;;;;;4994385;28;20070;-60
2023/12/30 01:43:02;;;;;;;12.27;5.75;;;1.30;99.90;;;;;;4992749;28;20786;-60
2023/12/30 01:45:30;;;;;;;12.15;6.38;;;1.00;99.90;;;;;;4993619;28;20050;-59
2023/12/30 01:47:58;;;;;;;13.20;5.93;;;0.90;99.90;;;;;;4994405;28;20038;-59
2023/12/30 01:50:26;;;;;;;11.90;5.50;;;0.80;99.90;;;;;;4993224;28;20066;-59
2023/12/30 01:52:53;;;;;;;16.02;6.35;;;0.80;99.90;;;;;;4977957;28;20137;-59
2023/12/30 01:55:20;;;;;;;12.20;5.97;;;0.90;99.90;;;;;;4981347;28;20035;-59
2023/12/30 01:57:48;;;;;;;14.57;6.97;;;0.90;99.90;;;;;;4990436;28;20038;-60
2023/12/30 02:00:21;;;;;;;10.68;5.68;;;0.90;99.90;;;;;;4992783;28;20468;-60
2023/12/30 02:02:49;;;;;;;10.95;5.43;;;0.90;99.90;;;;;;4993264;28;20050;-58
2023/12/30 02:05:17;;;;;;;13.00;5.68;;;1.00;99.90;;;;;;4992480;28;20491;-59
2023/12/30 02:07:46;;;;;;;16.80;6.38;;;0.90;99.90;;;;;;4975812;28;20065;-60
2023/12/30 02:10:13;;;;;;;9.82;5.32;;;0.90;99.90;;;;;;4985889;28;20039;-60
2023/12/30 02:12:40;;;;;;;12.60;6.15;;;0.80;99.90;;;;;;4969209;28;20050;-60
2023/12/30 02:15:15;;;;;;;13.75;5.63;;;0.70;99.90;;;;;;4975957;28;20042;-60
2023/12/30 02:17:41;;;;;;;13.85;5.03;;;0.70;99.90;;;;;;4976894;28;20042;-58
2023/12/30 02:20:09;;;;;;;9.65;4.90;;;0.80;99.90;;;;;;4977174;28;20078;-60
2023/12/30 02:22:42;;;;;;;11.23;6.18;;;0.80;99.90;;;;;;4993241;28;20054;-60
2023/12/30 02:25:12;;;;;;;9.20;4.95;;;0.80;99.90;;;;;;4994154;28;20073;-59
2023/12/30 02:27:39;;;;;;;9.38;4.53;;;0.70;99.90;;;;;;4976836;28;20097;-59
2023/12/30 02:30:07;;;;;;;9.77;5.72;;;0.70;99.90;;;;;;4993692;28;20078;-59
2023/12/30 02:32:33;;;;;;;12.57;5.97;;;0.70;99.90;;;;;;4994750;28;20041;-60
2023/12/30 02:35:00;;;;;;;13.13;5.40;;;0.70;99.90;;;;;;4992654;28;20038;-60
2023/12/30 02:37:27;;;;;;;12.75;5.85;;;0.70;99.90;;;;;;4976494;28;20452;-60
2023/12/30 02:39:54;;;;;;;11.55;4.78;;;0.80;99.90;;;;;;4984853;28;20483;-60
2023/12/30 02:42:21;;;;;;;10.32;4.57;;;0.90;99.90;;;;;;4992415;28;20122;-59
2023/12/30 02:44:49;;;;;;;10.07;4.43;;;0.90;99.90;;;;;;4990049;28;20042;-60
2023/12/30 02:47:16;;;;;;;9.23;4.20;;;1.00;99.90;;;;;;4993528;28;20565;-60
2023/12/30 02:49:44;;;;;;;8.95;4.47;;;1.00;99.90;;;;;;4985081;28;20050;-59
2023/12/30 02:52:11;;;;;;;5.63;3.17;;;1.00;99.90;;;;;;4984644;28;20126;-59
2023/12/30 02:54:38;;;;;;;;;;;1.10;99.90;;;;;;4974254;28;20081;-59
2023/12/30 02:57:06;;;;;;;5.13;3.63;;;1.10;99.90;;;;;;4993081;28;19921;-59
2023/12/30 02:59:32;;;;;;;;;;;1.10;99.90;;;;;;4980526;28;20062;-60
2023/12/30 03:02:00;;;;;;;14.20;5.88;;;1.20;99.90;;;;;;4992967;28;19922;-60
2023/12/30 03:04:27;;;;;;;14.65;7.53;;;1.20;99.90;;;;;;4976004;28;20113;-60
2023/12/30 03:06:54;;;;;;;14.32;7.57;;;1.20;99.90;;;;;;4992766;28;20062;-60
2023/12/30 03:09:21;;;;;;;14.30;6.28;;;1.20;99.90;;;;;;4992540;28;20054;-60
2023/12/30 03:11:47;;;;;;;9.80;4.03;;;1.30;99.90;;;;;;4993849;28;20054;-60
2023/12/30 03:14:14;;;;;;;9.48;4.65;;;1.30;99.90;;;;;;4992125;28;20381;-60
2023/12/30 03:16:41;;;;;;;;;;;1.30;99.90;;;;;;4992743;28;20134;-59
2023/12/30 03:19:08;;;;;;;8.23;3.78;;;1.30;99.90;;;;;;4991447;28;20508;-59
2023/12/30 03:21:35;;;;;;;;;;;1.30;99.90;;;;;;4975857;28;20049;-60
2023/12/30 03:24:02;;;;;;;11.95;3.53;;;1.30;99.90;;;;;;4989279;28;19976;-59
2023/12/30 03:26:29;;;;;;;8.52;4.00;;;1.30;99.90;;;;;;4992228;28;20499;-59
2023/12/30 03:28:56;;;;;;;15.75;5.93;;;1.40;99.90;;;;;;4975790;28;20518;-60
2023/12/30 03:31:25;;;;;;;11.57;5.97;;;1.30;99.90;;;;;;4975598;28;20522;-60
2023/12/30 03:33:53;;;;;;;11.73;5.18;;;1.30;99.90;;;;;;4990671;28;20064;-60
2023/12/30 03:36:20;;;;;;;;;;;1.30;99.90;;;;;;4992436;28;20137;-59
2023/12/30 03:38:48;;;;;;;13.43;6.25;;;1.30;99.90;;;;;;4993119;28;19926;-58
2023/12/30 03:41:16;;;;;;;12.63;6.28;;;1.30;99.90;;;;;;4986665;28;20195;-59
2023/12/30 03:43:43;;;;;;;14.68;5.93;;;1.30;99.90;;;;;;4965206;28;20042;-60
2023/12/30 03:46:09;;;;;;;14.25;5.78;;;1.30;99.90;;;;;;4990346;28;20061;-59
2023/12/30 03:48:37;;;;;;;13.02;6.93;;;1.20;99.90;;;;;;4992566;28;20056;-59
2023/12/30 03:51:05;;;;;;;14.88;7.22;;;1.10;99.90;;;;;;4992790;28;20372;-59
2023/12/30 03:53:33;;;;;;;15.82;7.55;;;1.10;99.90;;;;;;4992019;28;20473;-59
2023/12/30 03:56:00;;;;;;;12.98;6.40;;;1.10;99.90;;;;;;4987243;28;20073;-58
2023/12/30 03:58:27;;;;;;;;;;;1.00;99.90;;;;;;4992267;28;20125;-58
2023/12/30 04:00:54;;;;;;;12.50;6.40;;;1.00;99.90;;;;;;4991845;28;19952;-60
2023/12/30 04:03:21;;;;;;;15.20;6.90;;;0.80;99.90;;;;;;4974551;28;20078;-60
2023/12/30 04:05:48;;;;;;;14.32;6.57;;;0.80;99.90;;;;;;4992573;28;20046;-59
2023/12/30 04:08:15;;;;;;;15.15;7.25;;;0.80;99.90;;;;;;4992715;28;20050;-60
2023/12/30 04:10:42;;;;;;;14.95;7.05;;;0.80;99.90;;;;;;4972132;28;20452;-60
2023/12/30 04:13:09;;;;;;;15.77;6.93;;;0.80;99.90;;;;;;4978826;28;20043;-60
2023/12/30 04:15:37;;;;;;;13.30;6.05;;;0.80;99.90;;;;;;4970690;28;20046;-60
2023/12/30 04:18:04;;;;;;;;;;;0.80;99.90;;;;;;4974367;28;20498;-59
2023/12/30 04:20:31;;;;;;;13.55;6.53;;;0.90;99.90;;;;;;4986813;28;20414;-58
2023/12/30 04:22:57;;;;;;;13.27;6.57;;;0.90;99.90;;;;;;4972978;28;20050;-60
2023/12/30 04:25:24;;;;;;;14.57;6.90;;;0.90;99.90;;;;;;4992556;28;20034;-60
2023/12/30 04:27:51;;;;;;;11.85;6.38;;;0.90;99.90;;;;;;4974399;28;20061;-58
2023/12/30 04:30:18;;;;;;;14.68;6.22;;;0.80;99.90;;;;;;4991600;28;20054;-60
2023/12/30 04:32:45;;;;;;;14.25;6.07;;;0.80;99.90;;;;;;4974894;28;20050;-60
2023/12/30 04:35:12;;;;;;;12.07;5.97;;;0.90;99.90;;;;;;4992189;28;20045;-60
2023/12/30 04:37:39;;;;;;;12.50;5.97;;;1.00;99.90;;;;;;4974732;28;20081;-59
2023/12/30 04:40:06;;;;;;;18.13;7.18;;;1.10;99.90;;;;;;4972934;28;20048;-60
2023/12/30 04:42:34;;;;;;;11.18;5.80;;;1.10;99.90;;;;;;4991229;28;20042;-59
2023/12/30 04:45:03;;;;;;;13.45;6.40;;;1.00;99.90;;;;;;4974189;28;20050;-60
2023/12/30 04:47:29;;;;;;;11.65;6.20;;;0.80;99.90;;;;;;4992132;28;20046;-60
2023/12/30 04:49:57;;;;;;;13.75;6.03;;;0.70;99.90;;;;;;4972636;28;20061;-60
2023/12/30 04:52:24;;;;;;;12.40;4.97;;;0.60;99.90;;;;;;4974887;28;20053;-60
2023/12/30 04:54:51;;;;;;;12.60;5.38;;;0.60;99.90;;;;;;4974057;28;20161;-56
2023/12/30 04:57:18;;;;;;;11.35;5.43;;;0.70;99.90;;;;;;4967529;28;20495;-60
2023/12/30 04:59:45;;;;;;;11.30;6.40;;;0.80;99.90;;;;;;4974517;28;20046;-59
2023/12/30 05:02:12;;;;;;;12.75;5.85;;;0.90;99.90;;;;;;4982961;28;20050;-59
2023/12/30 05:04:42;;;;;;;15.85;5.93;;;1.10;99.90;;;;;;4990675;28;20543;-60
2023/12/30 05:07:09;;;;;;;10.60;5.43;;;1.20;99.90;;;;;;4987950;28;20089;-61
2023/12/30 05:09:36;;;;;;;9.85;5.13;;;1.20;99.90;;;;;;4991796;28;20061;-58
2023/12/30 05:12:03;;;;;;;8.18;4.60;;;1.10;99.90;;;;;;4991647;28;20530;-59
2023/12/30 05:14:30;;;;;;;11.70;5.75;;;0.70;99.90;;;;;;4993709;28;20424;-59
2023/12/30 05:16:57;;;;;;;11.70;6.10;;;0.50;99.90;;;;;;4966806;28;20061;-59
2023/12/30 05:19:24;;;;;;;13.60;6.47;;;0.40;99.90;;;;;;4995332;28;20053;-60
2023/12/30 05:21:51;;;;;;;19.02;7.97;;;0.30;99.90;;;;;;4995747;28;20045;-60
2023/12/30 05:24:18;;;;;;;10.98;6.57;;;0.30;99.90;;;;;;4995162;28;20078;-58
2023/12/30 05:26:46;;;;;;;14.90;6.80;;;0.30;99.90;;;;;;4988475;28;20050;-60
2023/12/30 05:29:13;;;;;;;14.68;7.13;;;0.30;99.90;;;;;;4978440;28;20121;-60
2023/12/30 05:31:40;;;;;;;15.95;7.40;;;0.20;99.90;;;;;;4994375;28;20073;-60
2023/12/30 05:34:08;;;;;;;14.93;7.10;;;0.20;99.90;;;;;;4995578;28;20555;-59
2023/12/30 05:36:37;;;;;;;14.93;7.47;;;0.30;99.90;;;;;;4994846;28;20100;-59
2023/12/30 05:39:04;;;;;;;17.23;7.88;;;0.30;99.90;;;;;;4995350;28;20077;-60
2023/12/30 05:41:31;;;;;;;16.42;6.90;;;0.40;99.90;;;;;;4994903;28;20161;-60
2023/12/30 05:43:58;;;;;;;16.58;7.30;;;0.30;99.90;;;;;;4995414;28;20552;-60
2023/12/30 05:46:25;;;;;;;13.13;7.50;;;0.40;99.90;;;;;;4995518;28;20463;-60
2023/12/30 05:48:52;;;;;;;13.93;6.97;;;0.40;99.90;;;;;;4993408;28;20134;-59
2023/12/30 05:51:19;;;;;;;15.05;6.70;;;0.40;99.90;;;;;;4995550;28;20038;-59
2023/12/30 05:53:50;;;;;;;13.75;6.53;;;0.40;99.90;;;;;;4995133;28;20050;-60
2023/12/30 05:56:23;;;;;;;12.50;5.57;;;0.50;99.90;;;;;;4995425;28;20042;-60
2023/12/30 05:58:52;;;;;;;15.85;7.60;;;0.40;99.90;;;;;;4988364;28;20042;-60
2023/12/30 06:01:19;;;;;;;10.95;5.57;;;0.40;99.90;;;;;;4986221;28;20459;-60
2023/12/30 06:03:47;;;;;;;13.32;6.75;;;0.30;99.90;;;;;;4994465;28;20105;-60
2023/12/30 06:06:14;;;;;;;14.30;7.25;;;0.30;99.90;;;;;;4994157;28;20049;-60
2023/12/30 06:08:41;;;;;;;14.32;7.25;;;0.30;99.90;;;;;;4994802;28;20068;-59
2023/12/30 06:11:08;;;;;;;16.88;7.20;;;0.30;99.90;;;;;;4992685;28;20069;-60
2023/12/30 06:13:35;;;;;;;13.10;6.82;;;0.30;99.90;;;;;;4994957;28;20045;-60
2023/12/30 06:16:02;;;;;;;16.45;6.53;;;0.20;99.90;;;;;;4994359;28;20031;-60
2023/12/30 06:18:31;;;;;;;12.93;6.75;;;0.10;99.90;;;;;;4993741;28;20125;-60
2023/12/30 06:20:58;;;;;;;17.02;6.90;;;0.10;99.90;;;;;;4994919;28;20035;-59
2023/12/30 06:23:30;;;;;;;14.48;7.22;;;0.20;99.90;;;;;;4981475;28;20031;-59
2023/12/30 06:25:58;;;;;;;15.82;7.50;;;0.20;99.90;;;;;;4982672;28;20042;-59
2023/12/30 06:28:26;;;;;;;16.40;8.10;;;0.20;99.90;;;;;;4976767;28;20093;-60
2023/12/30 06:30:53;;;;;;;17.75;8.23;;;0.20;99.90;;;;;;4993470;28;20465;-57
2023/12/30 06:33:22;;;;;;;21.17;10.73;;;0.30;99.90;;;;;;4986715;28;20460;-60
2023/12/30 06:35:49;;;;;;;19.33;7.38;;;0.30;99.90;;;;;;4994010;28;20081;-59
2023/12/30 06:38:17;;;;;;;12.38;7.50;;;0.30;99.90;;;;;;4992968;28;20039;-61
2023/12/30 06:40:45;;;;;;;;;;;0.30;99.90;;;;;;4995133;28;20042;-60
2023/12/30 06:43:13;;;;;;;16.52;7.28;;;0.30;99.90;;;;;;4993093;28;19922;-60
2023/12/30 06:45:40;;;;;;;;;;;0.30;99.90;;;;;;4994569;28;20039;-59
2023/12/30 06:48:07;;;;;;;14.27;6.65;;;0.20;99.90;;;;;;4993992;28;19928;-59
2023/12/30 06:50:34;;;;;;;15.50;7.57;;;0.20;99.90;;;;;;4993255;28;20043;-58
2023/12/30 06:53:00;;;;;;;23.05;10.23;;;0.20;99.90;;;;;;4994236;28;20056;-58
2023/12/30 06:55:28;;;;;;;17.08;9.00;;;0.20;99.90;;;;;;4993150;28;20495;-60
2023/12/30 06:58:04;;;;;;;17.85;8.80;;;0.20;99.90;;;;;;4987518;28;20075;-60
2023/12/30 07:00:31;;;;;;;16.05;8.73;;;0.20;99.90;;;;;;4994377;28;20430;-58
2023/12/30 07:02:58;;;;;;;15.10;7.05;;;0.20;99.90;;;;;;4994008;28;20038;-60
2023/12/30 07:05:25;;;;;;;21.40;8.45;;;0.20;99.90;;;;;;4993956;28;20046;-58
2023/12/30 07:07:52;;;;;;;15.43;7.55;;;0.20;99.90;;;;;;4992854;28;20547;-60
2023/12/30 07:10:19;;;;;;;15.38;7.47;;;0.20;99.90;;;;;;4993675;28;20061;-58
2023/12/30 07:12:46;;;;;;;14.10;7.03;;;0.20;99.90;;;;;;4993800;28;20081;-59
2023/12/30 07:15:12;;;;;;;8.98;5.15;;;0.20;99.90;;;;;;4992564;28;20047;-61
2023/12/30 07:17:39;;;;;;;14.75;7.03;;;0.10;99.90;;;;;;4993547;28;20041;-60
2023/12/30 07:20:07;;;;;;;15.35;7.90;;;0.10;99.90;;;;;;4992807;28;20125;-60
2023/12/30 07:22:34;;;;;;;14.77;7.35;;;0.20;99.90;;;;;;4992730;28;20049;-60
2023/12/30 07:25:00;;;;;;;12.70;6.68;;;0.20;99.90;;;;;;4990161;28;20061;-59
2023/12/30 07:27:27;;;;;;;12.93;6.22;;;0.20;99.90;;;;;;4993301;28;20038;-60
2023/12/30 07:29:54;;;;;;;14.15;6.93;;;0.20;99.90;;;;;;4993793;28;20042;-59
2023/12/30 07:32:21;;;;;;;15.50;7.50;;;0.30;99.90;;;;;;4993062;28;20411;-59
2023/12/30 07:34:48;;;;;;;13.48;6.93;;;0.30;99.90;;;;;;4993316;28;20511;-60
2023/12/30 07:37:15;;;;;;;16.95;7.18;;;0.40;99.90;;;;;;4992750;28;20034;-59
2023/12/30 07:39:42;;;;;;;16.40;7.22;;;0.40;99.90;;;;;;4992595;28;20100;-60
2023/12/30 07:42:09;;;;;;;12.45;6.53;;;0.40;99.90;;;;;;4992122;28;20129;-61
2023/12/30 07:44:37;;;;;;;14.40;7.88;;;0.50;99.90;;;;;;4993577;28;20045;-58
2023/12/30 07:47:07;;;;;;;16.30;8.00;;;0.50;99.90;;;;;;4992747;28;20426;-61
2023/12/30 07:49:35;;;;;;;15.52;7.80;;;0.50;99.90;;;;;;4991210;28;20046;-61
2023/12/30 07:52:02;;;;;;;15.55;8.45;;;0.40;99.90;;;;;;4993350;28;20128;-61
2023/12/30 07:54:29;;;;;;;24.95;11.57;;;0.50;99.90;;;;;;4989307;28;20042;-61
2023/12/30 07:56:55;;;;;;;27.80;13.27;;;0.40;99.90;;;;;;4991281;28;20046;-61
2023/12/30 07:59:23;;;;;;;18.95;9.43;;;0.40;99.90;;;;;;4985437;28;20050;-60
2023/12/30 08:01:51;;;;;;;15.27;7.70;;;0.50;99.90;;;;;;4989279;28;20058;-61
2023/12/30 08:04:18;;;;;;;22.25;9.20;;;0.30;99.90;;;;;;4989190;28;20332;-60
2023/12/30 08:06:44;;;;;;;62.05;25.83;;;0.30;99.90;;;;;;4991101;28;20046;-59
2023/12/30 08:09:11;;;;;;;42.97;18.15;;;0.40;99.90;;;;;;4991704;28;20046;-60
2023/12/30 08:11:38;;;;;;;44.70;20.50;;;0.50;99.90;;;;;;4992394;28;20052;-61
2023/12/30 08:14:24;;;;;;;43.65;18.30;;;0.50;99.90;;;;;;4991407;28;20038;-61
2023/12/30 08:16:51;;;;;;;31.08;15.75;;;0.60;99.90;;;;;;4991677;28;20050;-60
2023/12/30 08:19:17;;;;;;;31.15;14.00;;;0.60;99.90;;;;;;4991718;28;20038;-61
2023/12/30 08:21:45;;;;;;;20.42;10.32;;;0.60;99.90;;;;;;4991104;28;20030;-60
2023/12/30 08:24:14;;;;;;;16.65;7.68;;;0.50;99.90;;;;;;4992052;28;20082;-61
2023/12/30 08:26:41;;;;;;;18.67;7.93;;;0.40;99.90;;;;;;4989669;28;20558;-60
2023/12/30 08:29:09;;;;;;;14.48;8.35;;;0.40;99.90;;;;;;4991081;28;20396;-61
2023/12/30 08:31:36;;;;;;;15.55;7.68;;;0.30;99.90;;;;;;4991960;28;20042;-61
2023/12/30 08:34:03;;;;;;;17.10;8.07;;;0.30;99.90;;;;;;4991970;28;20479;-61
2023/12/30 08:36:30;;;;;;;17.10;7.95;;;0.30;99.90;;;;;;4991872;28;20399;-60
2023/12/30 08:38:57;;;;;;;18.88;8.77;;;0.30;99.90;;;;;;4990815;28;20064;-60
2023/12/30 08:41:27;;;;;;;16.95;8.40;;;0.30;99.90;;;;;;4983293;28;20042;-59
2023/12/30 08:43:57;;;;;;;19.75;8.80;;;0.30;99.90;;;;;;4990376;28;20046;-60
2023/12/30 08:46:24;;;;;;;19.67;9.63;;;0.40;99.90;;;;;;4990173;28;20066;-61
2023/12/30 08:48:51;;;;;;;;;;;0.50;99.90;;;;;;4989537;28;20484;-60
2023/12/30 08:51:18;;;;;;;36.08;16.92;;;0.60;99.90;;;;;;4989515;28;19926;-60
2023/12/30 08:53:45;;;;;;;29.77;13.65;;;0.80;99.90;;;;;;4990690;28;20136;-59
2023/12/30 08:56:12;;;;;;;25.70;11.82;;;1.00;99.90;;;;;;4987428;28;21390;-59
2023/12/30 08:58:39;;;;;;;24.10;12.55;;;1.20;99.90;;;;;;4982745;28;20479;-60
2023/12/30 09:01:06;;;;;;;20.88;10.40;;;1.40;99.90;;;;;;4989656;28;20046;-60
2023/12/30 09:03:33;;;;;;;;;;;1.60;99.90;;;;;;4990892;28;20055;-60
2023/12/30 09:06:00;;;;;;;23.77;11.07;;;1.70;99.90;;;;;;4991508;28;19969;-59
2023/12/30 09:08:27;;;;;;;25.38;13.40;;;1.70;99.90;;;;;;4991301;28;20129;-60
2023/12/30 09:10:54;;;;;;;29.23;14.65;;;1.60;99.90;;;;;;4990417;28;20045;-61
2023/12/30 09:13:21;;;;;;;25.23;11.63;;;1.60;99.90;;;;;;4991331;28;20054;-60
2023/12/30 09:15:48;;;;;;;22.75;10.77;;;1.80;99.90;;;;;;4985966;28;20425;-58
2023/12/30 09:18:15;;;;;;;21.58;10.27;;;1.90;99.90;;;;;;4988262;28;20038;-60
2023/12/30 09:20:43;;;;;;;;;;;2.00;99.90;;;;;;4988316;28;20093;-59
2023/12/30 09:23:10;;;;;;;20.67;9.55;;;2.00;99.90;;;;;;4984765;28;20013;-61
2023/12/30 09:25:36;;;;;;;21.23;10.18;;;2.00;99.90;;;;;;4982686;28;20092;-59
2023/12/30 09:28:03;;;;;;;23.35;10.23;;;2.00;99.90;;;;;;4984192;28;20785;-60
2023/12/30 09:30:30;;;;;;;23.52;10.20;;;2.00;99.90;;;;;;4988805;28;20050;-61
2023/12/30 09:32:57;;;;;;;18.70;9.30;;;2.00;99.90;;;;;;4990536;28;20031;-61
2023/12/30 09:35:24;;;;;;;18.88;9.02;;;2.00;99.90;;;;;;4980106;28;20043;-60
2023/12/30 09:37:51;;;;;;;21.05;9.13;;;2.20;99.90;;;;;;4971763;28;20381;-60
2023/12/30 09:40:18;;;;;;;20.52;9.25;;;2.30;99.90;;;;;;4984269;28;20121;-60
2023/12/30 09:42:48;;;;;;;16.40;7.45;;;2.40;99.90;;;;;;4990378;28;20154;-61
2023/12/30 09:45:15;;;;;;;14.43;7.80;;;2.50;99.90;;;;;;4990931;28;20070;-61
2023/12/30 09:47:45;;;;;;;13.52;7.30;;;2.80;99.90;;;;;;4990304;28;20097;-59
2023/12/30 09:50:19;;;;;;;14.77;7.50;;;3.00;99.90;;;;;;4991585;28;20047;-63
2023/12/30 09:52:56;;;;;;;12.88;7.10;;;3.00;99.90;;;;;;4985869;28;20038;-62
2023/12/30 09:55:24;;;;;;;12.23;6.70;;;3.20;99.90;;;;;;4991217;28;20105;-60
2023/12/30 09:57:51;;;;;;;14.52;6.97;;;3.30;99.90;;;;;;4990513;28;20041;-61
2023/12/30 10:00:21;;;;;;;14.82;7.63;;;3.40;99.90;;;;;;4988939;28;20058;-60
2023/12/30 10:02:48;;;;;;;13.82;7.18;;;3.40;99.90;;;;;;4987534;28;20030;-60
2023/12/30 10:05:15;;;;;;;13.68;6.25;;;3.50;99.90;;;;;;4990744;28;20039;-61
2023/12/30 10:07:42;;;;;;;9.82;5.80;;;3.50;99.90;;;;;;4993783;28;20058;-61
2023/12/30 10:10:09;;;;;;;11.35;6.35;;;3.50;99.90;;;;;;4993407;28;20480;-62
2023/12/30 10:12:36;;;;;;;;;;;3.60;99.90;;;;;;4993859;28;20050;-62
2023/12/30 10:15:04;;;;;;;12.23;6.60;;;3.60;99.90;;;;;;4993019;28;20375;-61
2023/12/30 10:17:30;;;;;;;;;;;3.60;99.90;;;;;;4994290;28;20076;-61
2023/12/30 10:19:58;;;;;;;15.43;8.13;;;3.60;99.90;;;;;;4994174;28;20300;-62
2023/12/30 10:22:25;;;;;;;19.38;8.90;;;3.80;99.90;;;;;;4993302;28;20039;-60
2023/12/30 10:24:52;;;;;;;14.25;8.15;;;3.90;99.90;;;;;;4984819;28;20046;-59
2023/12/30 10:27:20;;;;;;;15.13;7.88;;;4.20;99.90;;;;;;4994097;28;20046;-60
2023/12/30 10:29:54;;;;;;;18.35;7.40;;;4.20;99.90;;;;;;4993067;28;20042;-61
2023/12/30 10:32:26;;;;;;;12.02;5.55;;;4.30;99.90;;;;;;4992121;28;20066;-60
2023/12/30 10:34:53;;;;;;;11.35;6.60;;;4.40;99.90;;;;;;4991499;28;20031;-61
2023/12/30 10:37:23;;;;;;;11.48;5.40;;;4.30;99.90;;;;;;4993273;28;20109;-61
2023/12/30 10:39:53;;;;;;;11.98;5.68;;;4.30;99.90;;;;;;4993952;28;20034;-61
2023/12/30 10:42:19;;;;;;;10.18;5.70;;;4.30;99.90;;;;;;4993100;28;20448;-62
2023/12/30 10:44:46;;;;;;;9.77;4.25;;;4.30;99.90;;;;;;4985794;28;20113;-61
2023/12/30 10:47:15;;;;;;;9.73;5.75;;;4.30;99.90;;;;;;4992486;28;20137;-61
2023/12/30 10:49:51;;;;;;;10.57;5.93;;;4.30;99.90;;;;;;4992405;28;20086;-61
2023/12/30 10:52:22;;;;;;;10.43;5.32;;;4.40;99.90;;;;;;4990514;28;20078;-61
2023/12/30 10:55:14;;;;;;;7.85;4.65;;;4.60;99.90;;;;;;4993354;28;20307;-60
2023/12/30 10:57:51;;;;;;;10.68;5.50;;;4.60;99.90;;;;;;4992102;28;20073;-59
2023/12/30 11:00:20;;;;;;;11.65;6.00;;;4.60;99.90;;;;;;4990434;28;20047;-60
2023/12/30 11:02:47;;;;;;;9.48;5.60;;;4.80;99.90;;;;;;4993423;28;20044;-62
2023/12/30 11:05:24;;;;;;;9.52;5.32;;;5.00;99.90;;;;;;4990741;28;20046;-61
2023/12/30 11:07:51;;;;;;;10.90;5.00;;;5.10;99.90;;;;;;4992833;28;20460;-61
2023/12/30 11:10:20;;;;;;;8.15;5.00;;;5.20;99.90;;;;;;4992186;28;20058;-61
2023/12/30 11:12:47;;;;;;;8.60;4.90;;;5.10;99.90;;;;;;4990667;28;20066;-61
2023/12/30 11:15:30;;;;;;;9.50;4.70;;;5.20;99.90;;;;;;4992900;28;20046;-62
2023/12/30 11:17:58;;;;;;;12.82;4.68;;;5.30;99.90;;;;;;4992697;28;20389;-61
2023/12/30 11:20:32;;;;;;;9.45;4.72;;;5.40;99.90;;;;;;4990732;28;20047;-61
2023/12/30 11:23:02;;;;;;;9.48;4.88;;;5.40;99.90;;;;;;4993543;28;20459;-61
2023/12/30 11:25:52;;;;;;;8.88;5.20;;;5.40;99.90;;;;;;4992317;28;20054;-62
2023/12/30 11:28:21;;;;;;;10.30;5.18;;;5.50;99.90;;;;;;4992141;28;20399;-61
2023/12/30 11:30:57;;;;;;;10.10;4.57;;;5.50;99.90;;;;;;4992172;28;20050;-62
2023/12/30 11:33:25;;;;;;;8.68;4.57;;;5.60;99.90;;;;;;4992673;28;20057;-62
2023/12/30 11:35:55;;;;;;;11.40;4.60;;;5.70;99.90;;;;;;4993053;28;20041;-61
2023/12/30 11:38:24;;;;;;;9.23;4.57;;;5.80;99.90;;;;;;4991759;28;20042;-62
2023/12/30 11:40:53;;;;;;;6.38;4.32;;;5.80;99.90;;;;;;4993133;28;20538;-62
2023/12/30 11:43:20;;;;;;;13.07;5.45;;;5.80;99.90;;;;;;4991586;28;20050;-61
2023/12/30 11:45:48;;;;;;;10.90;5.13;;;5.90;99.90;;;;;;4992340;28;20065;-62
2023/12/30 11:48:15;;;;;;;;;;;5.90;99.90;;;;;;4991427;28;20046;-61
2023/12/30 11:50:42;;;;;;;12.65;4.75;;;6.10;99.90;;;;;;4991079;28;19929;-61
2023/12/30 11:53:09;;;;;;;7.30;4.60;;;6.10;99.90;;;;;;4992428;28;20035;-62
2023/12/30 11:55:36;;;;;;;9.77;4.47;;;6.10;99.90;;;;;;4990741;28;20305;-62
2023/12/30 11:58:03;;;;;;;8.45;4.30;;;6.20;99.90;;;;;;4992291;28;20483;-62
2023/12/30 12:00:30;;;;;;;9.27;4.18;;;6.20;99.90;;;;;;4991651;28;20066;-61
2023/12/30 12:02:57;;;;;;;10.55;5.07;;;6.20;99.90;;;;;;4990753;28;20043;-62
2023/12/30 12:05:24;;;;;;;10.75;4.55;;;6.30;99.90;;;;;;4987002;28;20061;-60
2023/12/30 12:07:50;;;;;;;7.78;4.55;;;6.30;99.90;;;;;;4988824;28;20046;-60
2023/12/30 12:10:18;;;;;;;9.80;5.38;;;6.30;99.90;;;;;;4986352;28;20125;-61
2023/12/30 12:12:48;;;;;;;9.05;5.20;;;6.30;99.90;;;;;;4987988;28;20047;-62
2023/12/30 12:15:15;;;;;;;10.98;5.22;;;6.30;99.90;;;;;;4991644;28;20027;-60
2023/12/30 12:17:42;;;;;;;7.97;4.60;;;6.30;99.90;;;;;;4990073;28;20555;-61
2023/12/30 12:20:10;;;;;;;13.80;4.55;;;6.30;99.90;;;;;;4989898;28;20046;-61
2023/12/30 12:22:38;;;;;;;10.70;4.35;;;6.30;99.90;;;;;;4984852;28;20491;-60
2023/12/30 12:25:06;;;;;;;8.23;4.50;;;6.30;99.90;;;;;;4989957;28;20046;-61
2023/12/30 12:27:33;;;;;;;7.07;4.70;;;6.40;99.90;;;;;;4988457;28;20129;-61
2023/12/30 12:30:01;;;;;;;11.68;4.95;;;6.40;99.90;;;;;;4986317;28;20042;-60
2023/12/30 12:32:27;;;;;;;9.35;4.75;;;6.50;99.90;;;;;;4987644;28;20077;-61
2023/12/30 12:34:57;;;;;;;8.75;4.75;;;6.50;99.90;;;;;;4991247;28;20397;-61
2023/12/30 12:37:25;;;;;;;11.57;4.63;;;6.40;99.90;;;;;;4992381;28;20054;-62
2023/12/30 12:39:52;;;;;;;7.38;4.95;;;6.40;99.90;;;;;;4988301;28;20046;-62
2023/12/30 12:42:19;;;;;;;8.43;5.15;;;6.50;99.90;;;;;;4989545;28;20439;-61
2023/12/30 12:44:56;;;;;;;7.43;5.13;;;6.50;99.90;;;;;;4985499;28;20125;-61
2023/12/30 12:47:23;;;;;;;10.65;5.07;;;6.60;99.90;;;;;;4990365;28;20054;-62
2023/12/30 12:49:50;;;;;;;7.28;4.07;;;6.60;99.90;;;;;;4987354;28;20042;-61
2023/12/30 12:52:17;;;;;;;9.15;4.90;;;6.60;99.90;;;;;;4989858;28;20050;-62
2023/12/30 12:54:44;;;;;;;9.38;4.75;;;6.70;99.90;;;;;;4988331;28;20088;-61
2023/12/30 12:57:11;;;;;;;10.68;4.60;;;6.80;99.90;;;;;;4991624;28;20788;-61